Terminal Aerodrome Forecast
Issued by NWS Sioux Falls, SD

Home | Current Version | Previous Version | Graphics & Text | Print | Product List | Glossary On
Versions: 1 2 3 4 5 6 7 8 9 10 11 12 13 14 15
000
FTUS43 KFSD 180500
TAFHON
TAF
KHON 180522Z 1806/1906 12013KT P6SM SCT100 BKN200
     FM181100 13015G23KT P6SM SCT070 BKN150
     FM181500 15020G28KT P6SM BKN150
     FM181800 17024G33KT P6SM SCT250
     FM190100 16015G23KT P6SM BKN200=

USA.gov is the U.S. government's official web portal to all federal, state and local government web resources and services.